DAL3158 KATL-KCLT
Flight info
| Callsign | DAL3158 |
|---|---|
| Flight time | 0h 44m |
| Altitude | 29000 |
| Route | PHIIL3 PHIIL CNTLR JONZE5 |
| Aircraft | B739/M-SDE2E3FGHIRWXY/LB1 |
Departure
| Time | 2026-05-04 22:09 |
|---|---|
| Airport | Hartsfield Jackson Atlanta International Airport (KATL) |
Arrival
| Time | 2026-05-04 22:54 |
|---|---|
| Airport | Charlotte Douglas International Airport (KCLT) |
| Time | Latitude | Longitude | Altitude | Speed | Heading |
|---|---|---|---|---|---|
| 2026-05-04 21:43 | 33.63920 | -84.43645 | 1034 ft | 0 kts | 89° |
| 2026-05-04 21:56 | 33.63919 | -84.43671 | 1034 ft | 4 kts | 91° |
| 2026-05-04 21:56 | 33.63920 | -84.43681 | 1034 ft | 4 kts | 98° |
| 2026-05-04 21:57 | 33.63927 | -84.43708 | 1044 ft | 4 kts | 132° |
| 2026-05-04 21:57 | 33.63947 | -84.43722 | 1041 ft | 3 kts | 179° |
| 2026-05-04 21:57 | 33.63950 | -84.43722 | 1034 ft | 0 kts | 180° |
| 2026-05-04 22:00 | 33.63946 | -84.43722 | 1034 ft | 3 kts | 180° |
| 2026-05-04 22:00 | 33.63900 | -84.43722 | 1034 ft | 10 kts | 179° |
| 2026-05-04 22:00 | 33.63849 | -84.43723 | 1034 ft | 11 kts | 180° |
| 2026-05-04 22:01 | 33.63790 | -84.43723 | 1034 ft | 7 kts | 180° |
| 2026-05-04 22:01 | 33.63739 | -84.43723 | 1034 ft | 7 kts | 180° |
| 2026-05-04 22:01 | 33.63691 | -84.43717 | 1034 ft | 7 kts | 161° |
| 2026-05-04 22:01 | 33.63666 | -84.43663 | 1034 ft | 9 kts | 94° |
| 2026-05-04 22:02 | 33.63665 | -84.43568 | 1034 ft | 14 kts | 90° |
| 2026-05-04 22:02 | 33.63664 | -84.43424 | 1034 ft | 20 kts | 90° |
| 2026-05-04 22:02 | 33.63665 | -84.43249 | 1034 ft | 21 kts | 90° |
| 2026-05-04 22:02 | 33.63665 | -84.43076 | 1034 ft | 20 kts | 90° |
| 2026-05-04 22:03 | 33.63665 | -84.42909 | 1034 ft | 20 kts | 90° |
| 2026-05-04 22:03 | 33.63662 | -84.42747 | 1035 ft | 19 kts | 95° |
| 2026-05-04 22:03 | 33.63656 | -84.42590 | 1035 ft | 18 kts | 90° |
| 2026-05-04 22:03 | 33.63656 | -84.42439 | 1035 ft | 18 kts | 90° |
| 2026-05-04 22:04 | 33.63656 | -84.42324 | 1035 ft | 5 kts | 90° |
| 2026-05-04 22:04 | 33.63656 | -84.42322 | 1035 ft | 0 kts | 90° |
| 2026-05-04 22:04 | 33.63656 | -84.42315 | 1035 ft | 3 kts | 90° |
| 2026-05-04 22:05 | 33.63656 | -84.42253 | 1035 ft | 12 kts | 90° |
| 2026-05-04 22:05 | 33.63620 | -84.42132 | 1035 ft | 19 kts | 120° |
| 2026-05-04 22:05 | 33.63582 | -84.41980 | 1035 ft | 19 kts | 90° |
| 2026-05-04 22:05 | 33.63582 | -84.41821 | 1034 ft | 19 kts | 90° |
| 2026-05-04 22:06 | 33.63582 | -84.41670 | 1034 ft | 18 kts | 89° |
| 2026-05-04 22:06 | 33.63583 | -84.41520 | 1034 ft | 17 kts | 90° |
| 2026-05-04 22:06 | 33.63582 | -84.41377 | 1033 ft | 17 kts | 90° |
| 2026-05-04 22:06 | 33.63583 | -84.41241 | 1034 ft | 16 kts | 90° |
| 2026-05-04 22:07 | 33.63582 | -84.41109 | 1034 ft | 16 kts | 90° |
| 2026-05-04 22:07 | 33.63582 | -84.40982 | 1034 ft | 14 kts | 90° |
| 2026-05-04 22:07 | 33.63569 | -84.40920 | 1034 ft | 7 kts | 142° |
| 2026-05-04 22:07 | 33.63523 | -84.40914 | 1035 ft | 7 kts | 180° |
| 2026-05-04 22:08 | 33.63475 | -84.40921 | 1035 ft | 4 kts | 216° |
| 2026-05-04 22:08 | 33.63471 | -84.40941 | 1035 ft | 0 kts | 271° |
| 2026-05-04 22:08 | 33.63471 | -84.40948 | 1035 ft | 5 kts | 271° |
| 2026-05-04 22:09 | 33.63473 | -84.41245 | 1033 ft | 78 kts | 270° |
| 2026-05-04 22:09 | 33.63472 | -84.42218 | 1036 ft | 152 kts | 272° |
| 2026-05-04 22:09 | 33.63488 | -84.43614 | 1548 ft | 176 kts | 269° |
| 2026-05-04 22:09 | 33.63492 | -84.45116 | 2484 ft | 182 kts | 268° |
| 2026-05-04 22:10 | 33.63483 | -84.46646 | 3322 ft | 192 kts | 267° |
| 2026-05-04 22:10 | 33.63150 | -84.48262 | 3614 ft | 211 kts | 240° |
| 2026-05-04 22:10 | 33.62392 | -84.49843 | 3825 ft | 229 kts | 238° |
| 2026-05-04 22:10 | 33.61637 | -84.51568 | 4163 ft | 246 kts | 242° |
| 2026-05-04 22:11 | 33.60857 | -84.53466 | 4559 ft | 262 kts | 242° |
| 2026-05-04 22:11 | 33.60050 | -84.55438 | 5398 ft | 262 kts | 242° |
| 2026-05-04 22:11 | 33.59003 | -84.57222 | 6111 ft | 265 kts | 219° |
| 2026-05-04 22:11 | 33.57392 | -84.58262 | 6896 ft | 265 kts | 196° |
| 2026-05-04 22:12 | 33.55558 | -84.58561 | 7598 ft | 270 kts | 182° |
| 2026-05-04 22:12 | 33.53676 | -84.58550 | 8326 ft | 273 kts | 180° |
| 2026-05-04 22:12 | 33.51769 | -84.58510 | 9072 ft | 276 kts | 180° |
| 2026-05-04 22:12 | 33.49859 | -84.58472 | 9799 ft | 279 kts | 177° |
| 2026-05-04 22:13 | 33.48008 | -84.57855 | 10402 ft | 288 kts | 152° |
| 2026-05-04 22:13 | 33.46494 | -84.56259 | 10962 ft | 300 kts | 128° |
| 2026-05-04 22:13 | 33.45657 | -84.53874 | 11105 ft | 328 kts | 99° |
| 2026-05-04 22:13 | 33.45553 | -84.51056 | 11401 ft | 345 kts | 91° |
| 2026-05-04 22:14 | 33.45577 | -84.48135 | 11863 ft | 355 kts | 90° |
| 2026-05-04 22:14 | 33.45610 | -84.45150 | 12478 ft | 361 kts | 90° |
| 2026-05-04 22:14 | 33.45624 | -84.42132 | 13180 ft | 364 kts | 91° |
| 2026-05-04 22:14 | 33.45617 | -84.39083 | 13872 ft | 368 kts | 91° |
| 2026-05-04 22:15 | 33.45600 | -84.36005 | 14505 ft | 372 kts | 91° |
| 2026-05-04 22:15 | 33.45698 | -84.32885 | 15111 ft | 378 kts | 80° |
| 2026-05-04 22:15 | 33.46375 | -84.29829 | 15766 ft | 381 kts | 73° |
| 2026-05-04 22:15 | 33.47185 | -84.26779 | 16375 ft | 387 kts | 72° |
| 2026-05-04 22:16 | 33.48019 | -84.23693 | 16964 ft | 392 kts | 72° |
| 2026-05-04 22:16 | 33.48855 | -84.20557 | 17565 ft | 397 kts | 72° |
| 2026-05-04 22:16 | 33.49686 | -84.17379 | 18170 ft | 401 kts | 73° |
| 2026-05-04 22:16 | 33.50512 | -84.14165 | 18706 ft | 406 kts | 73° |
| 2026-05-04 22:17 | 33.51337 | -84.10918 | 19249 ft | 410 kts | 73° |
| 2026-05-04 22:17 | 33.52166 | -84.07637 | 19784 ft | 413 kts | 73° |
| 2026-05-04 22:17 | 33.53002 | -84.04316 | 20325 ft | 417 kts | 73° |
| 2026-05-04 22:17 | 33.53833 | -84.01010 | 20845 ft | 421 kts | 72° |
| 2026-05-04 22:18 | 33.54682 | -83.97629 | 21374 ft | 426 kts | 72° |
| 2026-05-04 22:18 | 33.55538 | -83.94215 | 21878 ft | 430 kts | 72° |
| 2026-05-04 22:18 | 33.56402 | -83.90769 | 22389 ft | 434 kts | 72° |
| 2026-05-04 22:18 | 33.57273 | -83.87289 | 22909 ft | 438 kts | 72° |
| 2026-05-04 22:19 | 33.58152 | -83.83778 | 23396 ft | 442 kts | 72° |
| 2026-05-04 22:19 | 33.59162 | -83.80280 | 23848 ft | 445 kts | 65° |
| 2026-05-04 22:19 | 33.60442 | -83.76897 | 24305 ft | 446 kts | 62° |
| 2026-05-04 22:19 | 33.61810 | -83.73538 | 24769 ft | 449 kts | 62° |
| 2026-05-04 22:20 | 33.63166 | -83.70144 | 25215 ft | 452 kts | 63° |
| 2026-05-04 22:20 | 33.64488 | -83.66700 | 25647 ft | 455 kts | 63° |
| 2026-05-04 22:20 | 33.65771 | -83.63216 | 26126 ft | 457 kts | 67° |
| 2026-05-04 22:20 | 33.66726 | -83.59579 | 26704 ft | 456 kts | 73° |
| 2026-05-04 22:21 | 33.67659 | -83.55995 | 27308 ft | 453 kts | 64° |
| 2026-05-04 22:21 | 33.69122 | -83.52670 | 27900 ft | 448 kts | 56° |
| 2026-05-04 22:21 | 33.70759 | -83.49491 | 28502 ft | 446 kts | 54° |
| 2026-05-04 22:21 | 33.72412 | -83.46345 | 29031 ft | 446 kts | 54° |
| 2026-05-04 22:22 | 33.74062 | -83.43149 | 29015 ft | 452 kts | 55° |
| 2026-05-04 22:22 | 33.77260 | -83.36702 | 29019 ft | 446 kts | 56° |
| 2026-05-04 22:23 | 33.80386 | -83.30255 | 29036 ft | 447 kts | 56° |
| 2026-05-04 22:23 | 33.83529 | -83.23780 | 29037 ft | 449 kts | 56° |
| 2026-05-04 22:24 | 33.86884 | -83.17447 | 29035 ft | 449 kts | 53° |
| 2026-05-04 22:24 | 33.90330 | -83.11234 | 29025 ft | 449 kts | 53° |
| 2026-05-04 22:25 | 33.93772 | -83.04977 | 29027 ft | 448 kts | 53° |
| 2026-05-04 22:25 | 33.97183 | -82.98706 | 29033 ft | 447 kts | 53° |
| 2026-05-04 22:26 | 34.00564 | -82.92460 | 29034 ft | 446 kts | 53° |
| 2026-05-04 22:26 | 34.03952 | -82.86191 | 29041 ft | 447 kts | 53° |
| 2026-05-04 22:27 | 34.07346 | -82.79899 | 29043 ft | 448 kts | 53° |
| 2026-05-04 22:27 | 34.10745 | -82.73589 | 29039 ft | 449 kts | 53° |
| 2026-05-04 22:28 | 34.14152 | -82.67252 | 29036 ft | 450 kts | 53° |
| 2026-05-04 22:28 | 34.17560 | -82.60901 | 29035 ft | 451 kts | 53° |
| 2026-05-04 22:29 | 34.20949 | -82.54575 | 29031 ft | 451 kts | 53° |
| 2026-05-04 22:29 | 34.24351 | -82.48213 | 29030 ft | 451 kts | 53° |
| 2026-05-04 22:30 | 34.27746 | -82.41854 | 29036 ft | 450 kts | 53° |
| 2026-05-04 22:30 | 34.31128 | -82.35505 | 29037 ft | 448 kts | 53° |
| 2026-05-04 22:31 | 34.34471 | -82.29212 | 29010 ft | 435 kts | 53° |
| 2026-05-04 22:31 | 34.36100 | -82.26138 | 28632 ft | 430 kts | 53° |
| 2026-05-04 22:31 | 34.37706 | -82.23107 | 28226 ft | 426 kts | 53° |
| 2026-05-04 22:31 | 34.39296 | -82.20108 | 27824 ft | 421 kts | 53° |
| 2026-05-04 22:32 | 34.40871 | -82.17135 | 27375 ft | 418 kts | 53° |
| 2026-05-04 22:32 | 34.42436 | -82.14177 | 26940 ft | 415 kts | 53° |
| 2026-05-04 22:32 | 34.43968 | -82.11280 | 26518 ft | 411 kts | 53° |
| 2026-05-04 22:32 | 34.45522 | -82.08337 | 26091 ft | 408 kts | 53° |
| 2026-05-04 22:33 | 34.47028 | -82.05483 | 25681 ft | 406 kts | 53° |
| 2026-05-04 22:33 | 34.48544 | -82.02608 | 25282 ft | 403 kts | 53° |
| 2026-05-04 22:33 | 34.50065 | -81.99723 | 24852 ft | 401 kts | 53° |
| 2026-05-04 22:33 | 34.51544 | -81.96914 | 24447 ft | 399 kts | 53° |
| 2026-05-04 22:34 | 34.53032 | -81.94085 | 24038 ft | 397 kts | 53° |
| 2026-05-04 22:34 | 34.54509 | -81.91277 | 23639 ft | 394 kts | 54° |
| 2026-05-04 22:34 | 34.55979 | -81.88478 | 23149 ft | 393 kts | 54° |
| 2026-05-04 22:34 | 34.57444 | -81.85686 | 22711 ft | 390 kts | 54° |
| 2026-05-04 22:35 | 34.58896 | -81.82916 | 22288 ft | 387 kts | 54° |
| 2026-05-04 22:35 | 34.60332 | -81.80176 | 21882 ft | 383 kts | 54° |
| 2026-05-04 22:35 | 34.61756 | -81.77457 | 21479 ft | 380 kts | 54° |
| 2026-05-04 22:35 | 34.63167 | -81.74760 | 21079 ft | 377 kts | 54° |
| 2026-05-04 22:36 | 34.64568 | -81.72080 | 20688 ft | 374 kts | 54° |
| 2026-05-04 22:36 | 34.65956 | -81.69423 | 20292 ft | 371 kts | 54° |
| 2026-05-04 22:36 | 34.67333 | -81.66786 | 19901 ft | 369 kts | 54° |
| 2026-05-04 22:36 | 34.68703 | -81.64161 | 19517 ft | 367 kts | 54° |
| 2026-05-04 22:37 | 34.70075 | -81.61531 | 19137 ft | 373 kts | 54° |
| 2026-05-04 22:37 | 34.71501 | -81.58800 | 18732 ft | 392 kts | 54° |
| 2026-05-04 22:37 | 34.72974 | -81.55972 | 18289 ft | 396 kts | 54° |
| 2026-05-04 22:37 | 34.74443 | -81.53145 | 17855 ft | 394 kts | 55° |
| 2026-05-04 22:38 | 34.75971 | -81.50425 | 17541 ft | 387 kts | 48° |
| 2026-05-04 22:38 | 34.77766 | -81.47991 | 17105 ft | 384 kts | 43° |
| 2026-05-04 22:38 | 34.79622 | -81.45715 | 16700 ft | 383 kts | 41° |
| 2026-05-04 22:38 | 34.81510 | -81.43429 | 16284 ft | 383 kts | 42° |
| 2026-05-04 22:39 | 34.83386 | -81.41122 | 15870 ft | 382 kts | 43° |
| 2026-05-04 22:39 | 34.85238 | -81.38799 | 15456 ft | 382 kts | 43° |
| 2026-05-04 22:39 | 34.87080 | -81.36457 | 15042 ft | 382 kts | 44° |
| 2026-05-04 22:39 | 34.88905 | -81.34118 | 14624 ft | 380 kts | 44° |
| 2026-05-04 22:40 | 34.90713 | -81.31792 | 14220 ft | 376 kts | 44° |
| 2026-05-04 22:40 | 34.92501 | -81.29493 | 13806 ft | 373 kts | 44° |
| 2026-05-04 22:40 | 34.94259 | -81.27230 | 13356 ft | 368 kts | 44° |
| 2026-05-04 22:40 | 34.96014 | -81.24971 | 12916 ft | 364 kts | 44° |
| 2026-05-04 22:41 | 34.97747 | -81.22737 | 12513 ft | 361 kts | 44° |
| 2026-05-04 22:41 | 34.99468 | -81.20518 | 12115 ft | 357 kts | 44° |
| 2026-05-04 22:41 | 35.01173 | -81.18320 | 11726 ft | 354 kts | 44° |
| 2026-05-04 22:41 | 35.02840 | -81.16169 | 11342 ft | 352 kts | 44° |
| 2026-05-04 22:42 | 35.04520 | -81.14001 | 10965 ft | 351 kts | 44° |
| 2026-05-04 22:42 | 35.06198 | -81.11832 | 10621 ft | 351 kts | 45° |
| 2026-05-04 22:42 | 35.07862 | -81.09677 | 10487 ft | 347 kts | 45° |
| 2026-05-04 22:42 | 35.09585 | -81.07592 | 10323 ft | 348 kts | 35° |
| 2026-05-04 22:43 | 35.11747 | -81.06331 | 10181 ft | 344 kts | 11° |
| 2026-05-04 22:43 | 35.14107 | -81.06083 | 10040 ft | 338 kts | 354° |
| 2026-05-04 22:43 | 35.16421 | -81.06291 | 9945 ft | 336 kts | 352° |
| 2026-05-04 22:43 | 35.18755 | -81.06532 | 9818 ft | 335 kts | 352° |
| 2026-05-04 22:44 | 35.21078 | -81.06769 | 9713 ft | 335 kts | 352° |
| 2026-05-04 22:44 | 35.23398 | -81.06995 | 9617 ft | 334 kts | 352° |
| 2026-05-04 22:44 | 35.24934 | -81.07140 | 9517 ft | 332 kts | 352° |
| 2026-05-04 22:44 | 35.27242 | -81.07350 | 9185 ft | 330 kts | 353° |
| 2026-05-04 22:45 | 35.29530 | -81.07556 | 8669 ft | 330 kts | 353° |
| 2026-05-04 22:45 | 35.34101 | -81.07963 | 7838 ft | 323 kts | 353° |
| 2026-05-04 22:45 | 35.36270 | -81.08197 | 7760 ft | 309 kts | 351° |
| 2026-05-04 22:46 | 35.38364 | -81.08517 | 7669 ft | 297 kts | 348° |
| 2026-05-04 22:46 | 35.40375 | -81.08875 | 7580 ft | 286 kts | 348° |
| 2026-05-04 22:46 | 35.42318 | -81.09244 | 7393 ft | 280 kts | 348° |
| 2026-05-04 22:46 | 35.44240 | -81.09601 | 7121 ft | 278 kts | 348° |
| 2026-05-04 22:47 | 35.46103 | -81.09915 | 6815 ft | 278 kts | 354° |
| 2026-05-04 22:47 | 35.48022 | -81.09555 | 6485 ft | 284 kts | 20° |
| 2026-05-04 22:47 | 35.49622 | -81.08143 | 6180 ft | 286 kts | 49° |
| 2026-05-04 22:47 | 35.50554 | -81.06017 | 5797 ft | 289 kts | 75° |
| 2026-05-04 22:48 | 35.50924 | -81.03616 | 5542 ft | 284 kts | 89° |
| 2026-05-04 22:48 | 35.50622 | -81.01255 | 5222 ft | 278 kts | 116° |
| 2026-05-04 22:48 | 35.49534 | -80.99391 | 5004 ft | 267 kts | 138° |
| 2026-05-04 22:48 | 35.48164 | -80.97866 | 4720 ft | 264 kts | 142° |
| 2026-05-04 22:49 | 35.46614 | -80.96786 | 4365 ft | 259 kts | 171° |
| 2026-05-04 22:49 | 35.44834 | -80.96746 | 4070 ft | 256 kts | 185° |
| 2026-05-04 22:49 | 35.43085 | -80.96863 | 4004 ft | 246 kts | 185° |
| 2026-05-04 22:49 | 35.41417 | -80.96899 | 3979 ft | 234 kts | 181° |
| 2026-05-04 22:50 | 35.39840 | -80.96805 | 3958 ft | 222 kts | 178° |
| 2026-05-04 22:50 | 35.38315 | -80.96673 | 3767 ft | 215 kts | 178° |
| 2026-05-04 22:50 | 35.36837 | -80.96542 | 3488 ft | 209 kts | 177° |
| 2026-05-04 22:50 | 35.35399 | -80.96416 | 3196 ft | 206 kts | 178° |
| 2026-05-04 22:51 | 35.34000 | -80.96295 | 2944 ft | 197 kts | 178° |
| 2026-05-04 22:51 | 35.32674 | -80.96181 | 2690 ft | 189 kts | 177° |
| 2026-05-04 22:51 | 35.31391 | -80.96070 | 2454 ft | 180 kts | 177° |
| 2026-05-04 22:51 | 35.30172 | -80.95964 | 2204 ft | 171 kts | 177° |
| 2026-05-04 22:52 | 35.29012 | -80.95863 | 2012 ft | 165 kts | 178° |
| 2026-05-04 22:52 | 35.27889 | -80.95766 | 1832 ft | 160 kts | 178° |
| 2026-05-04 22:52 | 35.26771 | -80.95669 | 1575 ft | 158 kts | 178° |
| 2026-05-04 22:52 | 35.25720 | -80.95576 | 1369 ft | 144 kts | 179° |
| 2026-05-04 22:53 | 35.24745 | -80.95491 | 1204 ft | 137 kts | 178° |
| 2026-05-04 22:53 | 35.23759 | -80.95403 | 1000 ft | 144 kts | 180° |
| 2026-05-04 22:53 | 35.22776 | -80.95324 | 784 ft | 143 kts | 178° |
| 2026-05-04 22:53 | 35.21843 | -80.95239 | 741 ft | 122 kts | 175° |
| 2026-05-04 22:54 | 35.21218 | -80.95187 | 735 ft | 59 kts | 175° |
| 2026-05-04 22:54 | 35.20941 | -80.95164 | 736 ft | 35 kts | 176° |
| 2026-05-04 22:54 | 35.20717 | -80.95113 | 737 ft | 31 kts | 158° |
| 2026-05-04 22:54 | 35.20578 | -80.95008 | 734 ft | 12 kts | 123° |
| 2026-05-04 22:55 | 35.20612 | -80.94942 | 732 ft | 11 kts | 14° |
| 2026-05-04 22:55 | 35.20702 | -80.94942 | 732 ft | 17 kts | 356° |
| 2026-05-04 22:55 | 35.20859 | -80.94955 | 725 ft | 28 kts | 356° |
| 2026-05-04 22:55 | 35.21057 | -80.94973 | 730 ft | 28 kts | 355° |
| 2026-05-04 22:56 | 35.21244 | -80.94989 | 732 ft | 26 kts | 355° |
| 2026-05-04 22:56 | 35.21420 | -80.95004 | 732 ft | 24 kts | 356° |
| 2026-05-04 22:56 | 35.21584 | -80.95019 | 732 ft | 23 kts | 356° |
| 2026-05-04 22:56 | 35.21741 | -80.95032 | 731 ft | 22 kts | 356° |
| 2026-05-04 22:57 | 35.21894 | -80.95045 | 732 ft | 22 kts | 355° |
| 2026-05-04 22:57 | 35.22040 | -80.95058 | 733 ft | 21 kts | 356° |
| 2026-05-04 22:57 | 35.22175 | -80.95068 | 733 ft | 15 kts | 3° |
| 2026-05-04 22:57 | 35.22227 | -80.94996 | 731 ft | 11 kts | 49° |
| 2026-05-04 22:58 | 35.22281 | -80.94938 | 732 ft | 8 kts | 72° |
| 2026-05-04 22:58 | 35.22269 | -80.94878 | 732 ft | 7 kts | 106° |
| 2026-05-04 22:58 | 35.22262 | -80.94850 | 730 ft | 1 kts | 108° |
| 2026-05-04 22:58 | 35.22262 | -80.94849 | 731 ft | 0 kts | 108° |